Hiwasse, Arkansas
Current Conditions -  °F | °C
As of 4:55 PM on Tuesday 27 Jan 2015 (Local Time) from KVBT Reporting Station
Clear Clear  
Wind Chill: 64°   Ceiling: Unl
Heat Index: 64°   Visibility: 10mi
Dew Point: 25°   Wind: 3mph
Humidity: 22%   Direction: 200°SSW
Pressure: 30.12"   Gusts: NA
Location:  36.43°N, 94.33°W
Report Text: KVBT 272255Z AUTO 20003KT 10SM CLR 18/M04 A3012 RMK AO1
Loading
Personal Weather Stations






























Interactive Weather Map New forecast layout! Learn more

10-Day Weather Forecast

Advertisements
Track Severe Weather on mobile